createdAt,value
2023-03-05T00:02:10.196Z,88.60
2023-03-05T00:04:37.197Z,89.35
2023-03-05T00:07:05.380Z,89.72
2023-03-05T00:09:35.829Z,90.34
2023-03-05T00:12:02.902Z,90.25
2023-03-05T00:14:30.301Z,90.47
2023-03-05T00:16:58.001Z,90.88
2023-03-05T00:19:25.171Z,90.30
2023-03-05T00:21:52.110Z,90.53
2023-03-05T00:24:19.656Z,90.63
2023-03-05T00:26:47.188Z,89.64
2023-03-05T00:29:18.540Z,90.08
2023-03-05T00:31:46.375Z,90.23
2023-03-05T00:34:15.471Z,90.75
2023-03-05T00:36:44.509Z,90.69
2023-03-05T00:39:12.386Z,91.05
2023-03-05T00:41:39.795Z,91.51
2023-03-05T00:44:07.698Z,91.33
2023-03-05T00:46:35.053Z,91.68
2023-03-05T00:49:01.926Z,90.86
2023-03-05T00:51:29.002Z,90.88
2023-03-05T00:53:56.170Z,90.31
2023-03-05T00:56:23.788Z,90.16
2023-03-05T00:58:51.000Z,90.26
2023-03-05T01:01:18.386Z,90.78
2023-03-05T01:03:45.653Z,91.54
2023-03-05T01:06:15.028Z,91.31
2023-03-05T01:08:43.915Z,91.34
2023-03-05T01:11:11.842Z,91.65
2023-03-05T01:13:38.538Z,91.13
2023-03-05T01:16:05.935Z,91.06
2023-03-05T01:18:33.867Z,90.80
2023-03-05T01:21:01.354Z,90.56
2023-03-05T01:23:28.858Z,90.39
2023-03-05T01:25:58.202Z,90.79
2023-03-05T01:28:27.778Z,91.19
2023-03-05T01:30:55.313Z,90.89
2023-03-05T01:33:23.243Z,90.71
2023-03-05T01:35:50.452Z,90.75
2023-03-05T01:38:18.148Z,90.28
2023-03-05T01:40:45.576Z,90.55
2023-03-05T01:43:12.246Z,90.76
2023-03-05T01:46:17.873Z,90.89
2023-03-05T01:48:49.927Z,90.69
2023-03-05T01:51:20.403Z,90.18
2023-03-05T01:53:47.750Z,90.44
2023-03-05T01:56:16.753Z,90.27
2023-03-05T01:58:45.148Z,90.17
2023-03-05T02:01:12.774Z,89.32
2023-03-05T02:03:41.716Z,89.43
2023-03-05T02:06:09.835Z,89.59
2023-03-05T02:08:36.832Z,89.60
2023-03-05T02:11:05.197Z,89.75
2023-03-05T02:13:38.726Z,89.93
2023-03-05T02:16:07.818Z,90.33
2023-03-05T02:18:36.420Z,90.02
2023-03-05T02:21:07.774Z,90.30
2023-03-05T02:23:38.037Z,90.24
2023-03-05T02:26:07.831Z,90.41
2023-03-05T02:28:40.275Z,90.50
2023-03-05T02:31:14.202Z,90.73
2023-03-05T02:33:41.385Z,90.82
2023-03-05T02:36:08.828Z,90.90
2023-03-05T02:38:36.644Z,90.50
2023-03-05T02:41:04.354Z,90.58
2023-03-05T02:43:32.274Z,91.01
2023-03-05T02:46:00.144Z,90.68
2023-03-05T02:48:27.400Z,90.68
2023-03-05T02:50:55.911Z,90.52
2023-03-05T02:53:23.781Z,90.50
2023-03-05T02:55:50.758Z,90.79
2023-03-05T02:58:18.502Z,90.62
2023-03-05T03:00:46.839Z,90.40
2023-03-05T03:03:14.132Z,90.20
2023-03-05T03:05:41.412Z,90.02
2023-03-05T03:08:08.792Z,89.93
2023-03-05T03:10:36.058Z,90.00
2023-03-05T03:13:04.860Z,90.22
2023-03-05T03:15:32.463Z,90.30
2023-03-05T03:17:59.522Z,90.26
2023-03-05T03:20:26.605Z,90.24
2023-03-05T03:22:53.889Z,90.33
2023-03-05T03:25:23.048Z,90.26
2023-03-05T03:27:49.987Z,89.87
2023-03-05T03:30:17.349Z,90.69
2023-03-05T03:32:44.689Z,90.64
2023-03-05T03:35:12.989Z,90.79
2023-03-05T03:37:40.789Z,90.41
2023-03-05T03:40:08.208Z,90.55
2023-03-05T03:42:35.624Z,90.42
2023-03-05T03:45:04.777Z,90.80
2023-03-05T03:47:31.864Z,91.14
2023-03-05T03:50:01.689Z,91.17
2023-03-05T03:52:28.677Z,91.62
2023-03-05T03:55:01.509Z,91.83
2023-03-05T03:57:30.161Z,91.71
2023-03-05T03:59:57.099Z,91.67
2023-03-05T04:02:24.322Z,91.61
2023-03-05T04:04:52.193Z,92.15
2023-03-05T04:07:19.825Z,92.59
2023-03-05T04:09:46.809Z,92.91
2023-03-05T04:12:18.010Z,93.49
2023-03-05T04:14:46.515Z,93.66
2023-03-05T04:17:15.200Z,94.19
2023-03-05T04:19:43.279Z,94.56
2023-03-05T04:22:12.499Z,94.64
2023-03-05T04:24:40.144Z,94.37
2023-03-05T04:27:07.332Z,94.69
2023-03-05T04:29:34.573Z,94.88
2023-03-05T04:32:01.627Z,94.65
2023-03-05T04:34:28.794Z,93.99
2023-03-05T04:36:55.634Z,94.06
2023-03-05T04:39:22.788Z,93.83
2023-03-05T04:41:50.097Z,93.78
2023-03-05T04:44:17.995Z,94.29
2023-03-05T04:46:44.846Z,94.41
2023-03-05T04:49:11.843Z,94.64
2023-03-05T04:51:39.011Z,94.42
2023-03-05T04:54:06.212Z,94.24
2023-03-05T04:56:33.680Z,93.74
2023-03-05T04:59:01.148Z,93.50
2023-03-05T05:01:28.280Z,93.91
2023-03-05T05:03:54.941Z,94.65
2023-03-05T05:06:21.818Z,94.59
2023-03-05T05:08:49.198Z,94.02
2023-03-05T05:11:16.357Z,94.34
2023-03-05T05:13:44.574Z,94.67
2023-03-05T05:16:11.478Z,94.87
2023-03-05T05:18:39.771Z,94.71
2023-03-05T05:21:09.197Z,94.61
2023-03-05T05:23:36.781Z,94.87
2023-03-05T05:26:06.366Z,95.18
2023-03-05T05:28:34.953Z,95.31
2023-03-05T05:31:07.850Z,95.03
2023-03-05T05:33:35.450Z,95.17
2023-03-05T05:36:09.104Z,94.79
2023-03-05T05:38:36.235Z,94.88
2023-03-05T05:41:09.618Z,95.15
2023-03-05T05:43:37.230Z,95.00
2023-03-05T05:46:08.173Z,94.56
2023-03-05T05:48:36.773Z,94.38
2023-03-05T05:51:10.014Z,94.44
2023-03-05T05:53:37.775Z,94.09
2023-03-05T05:56:05.989Z,93.48
2023-03-05T05:58:34.038Z,93.79
2023-03-05T06:01:01.326Z,93.76
2023-03-05T06:03:28.482Z,93.89
2023-03-05T06:05:55.893Z,94.00
2023-03-05T06:08:23.398Z,93.56
2023-03-05T06:10:55.069Z,93.34
2023-03-05T06:13:21.815Z,92.99
2023-03-05T06:16:00.009Z,93.30
2023-03-05T06:18:28.022Z,93.12
2023-03-05T06:21:01.086Z,92.91
2023-03-05T06:23:28.532Z,93.37
2023-03-05T06:25:59.908Z,93.55
2023-03-05T06:28:27.094Z,92.89
2023-03-05T06:31:08.635Z,93.51
2023-03-05T06:33:36.454Z,93.04
2023-03-05T06:36:12.489Z,93.05
2023-03-05T06:38:40.368Z,93.06
2023-03-05T06:41:11.489Z,92.90
2023-03-05T06:43:41.923Z,92.86
2023-03-05T06:46:15.345Z,92.95
2023-03-05T06:48:43.390Z,93.05
2023-03-05T06:51:15.255Z,92.90
2023-03-05T06:53:42.806Z,92.83
2023-03-05T06:56:10.338Z,91.54
2023-03-05T06:58:37.314Z,92.13
2023-03-05T07:01:09.275Z,92.10
2023-03-05T07:03:37.015Z,92.29
2023-03-05T07:06:09.784Z,92.08
2023-03-05T07:08:37.354Z,91.92
2023-03-05T07:11:09.380Z,92.04
2023-03-05T07:13:36.284Z,92.04
2023-03-05T07:16:08.800Z,92.15
2023-03-05T07:18:36.792Z,92.42
2023-03-05T07:21:08.149Z,92.33
2023-03-05T07:23:35.923Z,91.94
2023-03-05T07:26:06.372Z,91.94
2023-03-05T07:28:34.865Z,91.79
2023-03-05T07:31:12.097Z,91.74
2023-03-05T07:33:40.801Z,91.71
2023-03-05T07:36:09.097Z,92.21
2023-03-05T07:38:36.758Z,92.13
2023-03-05T07:41:05.895Z,92.12
2023-03-05T07:43:33.008Z,92.50
2023-03-05T07:46:04.374Z,93.23
2023-03-05T07:48:31.359Z,93.49
2023-03-05T07:51:04.017Z,93.46
2023-03-05T07:53:31.421Z,93.29
2023-03-05T07:55:58.845Z,93.30
2023-03-05T07:58:25.595Z,93.68
2023-03-05T08:00:52.962Z,94.05
2023-03-05T08:03:21.255Z,95.46
2023-03-05T08:05:48.033Z,95.57
2023-03-05T08:08:16.341Z,95.52
2023-03-05T08:10:43.428Z,95.62
2023-03-05T08:13:10.471Z,96.31
2023-03-05T08:15:38.226Z,95.87
2023-03-05T08:18:05.380Z,96.20
2023-03-05T08:20:35.522Z,95.95
2023-03-05T08:23:04.274Z,94.96
2023-03-05T08:25:31.982Z,95.39
2023-03-05T08:28:00.338Z,94.50
2023-03-05T08:30:27.985Z,94.04
2023-03-05T08:32:55.719Z,94.34
2023-03-05T08:35:23.739Z,94.21
2023-03-05T08:37:50.660Z,92.53
2023-03-05T08:40:18.110Z,91.83
2023-03-05T08:42:46.103Z,92.19
2023-03-05T08:45:13.552Z,94.02
2023-03-05T08:47:41.284Z,94.89
2023-03-05T08:50:09.282Z,95.01
2023-03-05T08:52:36.477Z,96.35
2023-03-05T08:55:04.138Z,95.88
2023-03-05T08:57:31.373Z,96.00
2023-03-05T08:59:58.509Z,96.53
2023-03-05T09:02:25.390Z,97.15
2023-03-05T09:04:52.197Z,96.91
2023-03-05T09:07:19.618Z,96.83
2023-03-05T09:09:46.676Z,97.19
2023-03-05T09:12:15.971Z,96.90
2023-03-05T09:14:43.628Z,96.02
2023-03-05T09:17:11.519Z,95.98
2023-03-05T09:19:38.942Z,94.96
2023-03-05T09:22:06.132Z,95.67
2023-03-05T09:24:33.824Z,94.28
2023-03-05T09:27:00.602Z,93.95
2023-03-05T09:29:28.274Z,93.83
2023-03-05T09:31:55.066Z,93.77
2023-03-05T09:34:22.780Z,93.66
2023-03-05T09:36:50.511Z,92.69
2023-03-05T09:39:17.477Z,91.59
2023-03-05T09:42:28.457Z,91.76
2023-03-05T09:45:16.879Z,91.78
2023-03-05T09:47:51.008Z,91.60
2023-03-05T09:50:40.553Z,92.08
2023-03-05T09:53:41.465Z,90.73
2023-03-05T09:56:16.532Z,88.74
2023-03-05T09:58:48.656Z,88.15
2023-03-05T10:01:20.543Z,88.58
2023-03-05T10:04:13.975Z,88.24
2023-03-05T10:06:59.045Z,87.30
2023-03-05T10:09:41.760Z,85.42
2023-03-05T10:12:42.689Z,85.16
2023-03-05T10:15:16.929Z,83.59
2023-03-05T10:18:04.700Z,83.65
2023-03-05T10:20:42.936Z,84.11
2023-03-05T10:23:16.192Z,85.26
2023-03-05T10:25:49.828Z,84.83
2023-03-05T10:28:22.369Z,84.43
2023-03-05T10:31:11.185Z,84.19
2023-03-05T10:33:53.788Z,83.96
2023-03-05T10:36:59.454Z,83.79
2023-03-05T10:39:38.303Z,84.15
2023-03-05T10:42:34.023Z,84.97
2023-03-05T10:45:14.271Z,82.78
2023-03-05T10:47:48.920Z,81.88
2023-03-05T10:50:27.821Z,79.55
2023-03-05T10:53:04.961Z,78.94
2023-03-05T10:55:32.351Z,78.49
2023-03-05T10:58:01.023Z,78.17
2023-03-05T11:00:28.551Z,77.91
2023-03-05T11:02:58.277Z,76.34
2023-03-05T11:05:45.214Z,75.63
2023-03-05T11:08:33.712Z,76.94
2023-03-05T11:11:10.241Z,77.12
2023-03-05T11:13:52.070Z,77.28
2023-03-05T11:16:21.617Z,79.30
2023-03-05T11:18:49.731Z,78.78
2023-03-05T11:21:28.592Z,78.26
2023-03-05T11:24:09.978Z,78.33
2023-03-05T11:26:36.854Z,78.03
2023-03-05T11:29:04.998Z,75.99
2023-03-05T11:31:33.528Z,75.71
2023-03-05T11:34:05.510Z,76.08
2023-03-05T11:36:57.226Z,75.67
2023-03-05T11:39:25.890Z,74.22
2023-03-05T11:41:56.033Z,73.28
2023-03-05T11:44:52.697Z,73.07
2023-03-05T11:47:31.810Z,72.99
2023-03-05T11:50:24.651Z,72.69
2023-03-05T11:52:56.137Z,69.65
2023-03-05T11:55:26.520Z,69.36
2023-03-05T11:58:20.402Z,70.18
2023-03-05T12:00:48.768Z,70.01
2023-03-05T12:03:19.344Z,70.79
2023-03-05T12:05:54.474Z,70.45
2023-03-05T12:08:29.472Z,69.23
2023-03-05T12:10:57.876Z,68.88
2023-03-05T12:13:36.784Z,69.84
2023-03-05T12:16:11.567Z,68.35
2023-03-05T12:18:51.218Z,69.99
2023-03-05T12:21:24.123Z,69.66
2023-03-05T12:23:51.920Z,68.97
2023-03-05T12:26:39.486Z,69.93
2023-03-05T12:29:27.868Z,69.02
2023-03-05T12:31:54.962Z,69.39
2023-03-05T12:34:40.583Z,69.64
2023-03-05T12:37:35.183Z,70.26
2023-03-05T12:40:19.563Z,70.61
2023-03-05T12:42:46.688Z,70.79
2023-03-05T12:45:16.552Z,70.58
2023-03-05T12:48:10.764Z,69.04
2023-03-05T12:50:37.858Z,69.82
2023-03-05T12:53:04.541Z,69.64
2023-03-05T12:55:35.014Z,69.33
2023-03-05T12:58:17.053Z,67.94
2023-03-05T13:00:49.478Z,68.98
2023-03-05T13:03:37.131Z,69.90
2023-03-05T13:06:06.982Z,70.17
2023-03-05T13:08:36.088Z,69.74
2023-03-05T13:11:20.553Z,68.37
2023-03-05T13:13:48.750Z,67.79
2023-03-05T13:16:23.389Z,66.93
2023-03-05T13:18:52.958Z,65.88
2023-03-05T13:21:26.868Z,65.94
2023-03-05T13:23:59.247Z,66.97
2023-03-05T13:26:30.690Z,66.45
2023-03-05T13:29:14.915Z,67.61
2023-03-05T13:31:58.775Z,67.62
2023-03-05T13:34:46.260Z,68.01
2023-03-05T13:37:18.834Z,68.23
2023-03-05T13:40:07.107Z,68.50
2023-03-05T13:42:37.591Z,68.41
2023-03-05T13:45:06.310Z,68.46
2023-03-05T13:47:35.486Z,68.12
2023-03-05T13:50:09.746Z,68.31
2023-03-05T13:52:38.876Z,69.03
2023-03-05T13:55:13.691Z,69.33
2023-03-05T13:57:55.839Z,68.34
2023-03-05T14:00:38.819Z,67.96
2023-03-05T14:03:10.084Z,68.87
2023-03-05T14:05:42.813Z,69.22
2023-03-05T14:08:21.292Z,69.68
2023-03-05T14:10:50.472Z,70.55
2023-03-05T14:13:20.984Z,69.24
2023-03-05T14:16:07.601Z,70.12
2023-03-05T14:18:35.528Z,70.71
2023-03-05T14:21:12.160Z,69.92
2023-03-05T14:23:52.971Z,70.83
2023-03-05T14:26:47.205Z,70.16
2023-03-05T14:29:17.682Z,70.48
2023-03-05T14:31:53.253Z,70.94
2023-03-05T14:34:23.114Z,71.24
2023-03-05T14:36:51.665Z,70.80
2023-03-05T14:39:39.828Z,70.48
2023-03-05T14:42:25.774Z,70.21
2023-03-05T14:44:55.826Z,69.97
2023-03-05T14:47:24.544Z,69.99
2023-03-05T14:49:51.198Z,70.06
2023-03-05T14:52:23.188Z,70.05
2023-03-05T14:54:51.885Z,69.30
2023-03-05T14:57:25.115Z,69.15
2023-03-05T14:59:52.372Z,69.01
2023-03-05T15:02:26.359Z,68.58
2023-03-05T15:04:53.701Z,67.92
2023-03-05T15:07:32.504Z,67.23
2023-03-05T15:10:02.495Z,66.15
2023-03-05T15:12:30.086Z,64.68
2023-03-05T15:14:57.297Z,64.21
2023-03-05T15:17:35.185Z,65.32
2023-03-05T15:20:06.911Z,64.68
2023-03-05T15:22:37.024Z,63.99
2023-03-05T15:25:05.917Z,64.50
2023-03-05T15:27:32.777Z,66.07
2023-03-05T15:30:00.425Z,65.06
2023-03-05T15:32:28.943Z,65.54
2023-03-05T15:34:56.301Z,65.00
2023-03-05T15:37:23.524Z,65.58
2023-03-05T15:39:53.002Z,65.41
2023-03-05T15:42:20.864Z,65.77
2023-03-05T15:44:47.966Z,66.83
2023-03-05T15:47:15.139Z,67.69
2023-03-05T15:49:43.059Z,67.74
2023-03-05T15:52:10.253Z,67.60
2023-03-05T15:54:37.685Z,67.05
2023-03-05T15:57:09.154Z,67.72
2023-03-05T15:59:36.854Z,67.39
2023-03-05T16:02:03.705Z,67.55
2023-03-05T16:04:30.610Z,66.46
2023-03-05T16:07:00.713Z,66.93
2023-03-05T16:09:31.131Z,66.93
2023-03-05T16:11:58.824Z,68.19
2023-03-05T16:14:27.893Z,67.32
2023-03-05T16:16:58.025Z,68.41
2023-03-05T16:19:25.645Z,69.13
2023-03-05T16:21:53.553Z,69.83
2023-03-05T16:24:20.425Z,70.86
2023-03-05T16:26:48.305Z,70.75
2023-03-05T16:29:15.580Z,71.35
2023-03-05T16:31:43.277Z,72.43
2023-03-05T16:34:14.027Z,72.76
2023-03-05T16:36:46.423Z,73.56
2023-03-05T16:39:13.463Z,73.70
2023-03-05T16:41:41.606Z,74.05
2023-03-05T16:44:09.267Z,74.36
2023-03-05T16:46:37.206Z,74.23
2023-03-05T16:49:05.180Z,75.28
2023-03-05T16:51:32.214Z,75.51
2023-03-05T16:53:59.828Z,75.76
2023-03-05T16:56:26.806Z,76.99
2023-03-05T16:58:55.563Z,76.91
2023-03-05T17:01:23.246Z,77.09
2023-03-05T17:03:52.848Z,78.02
2023-03-05T17:06:22.882Z,78.26
2023-03-05T17:08:51.218Z,78.58
2023-03-05T17:11:18.643Z,78.90
2023-03-05T17:13:48.750Z,78.50
2023-03-05T17:16:18.222Z,79.00
2023-03-05T17:18:45.677Z,79.75
2023-03-05T17:21:13.103Z,80.33
2023-03-05T17:23:40.542Z,80.03
2023-03-05T17:26:10.619Z,80.13
2023-03-05T17:28:38.303Z,79.91
2023-03-05T17:31:05.436Z,80.62
2023-03-05T17:33:33.940Z,81.21
2023-03-05T17:36:01.722Z,82.10
2023-03-05T17:38:30.002Z,82.36
2023-03-05T17:40:57.237Z,82.72
2023-03-05T17:43:24.263Z,82.81
2023-03-05T17:45:51.316Z,82.72
2023-03-05T17:48:18.240Z,83.00
2023-03-05T17:50:46.273Z,83.42
2023-03-05T17:53:13.620Z,83.52
2023-03-05T17:55:40.649Z,83.11
2023-03-05T17:58:08.854Z,82.75
2023-03-05T18:00:37.559Z,82.79
2023-03-05T18:03:05.473Z,82.49
2023-03-05T18:05:32.638Z,82.90
2023-03-05T18:08:03.411Z,82.80
2023-03-05T18:10:31.797Z,82.27
2023-03-05T18:12:59.505Z,82.64
2023-03-05T18:15:28.197Z,83.18
2023-03-05T18:17:56.408Z,82.75
2023-03-05T18:20:28.820Z,82.90
2023-03-05T18:22:56.369Z,82.25
2023-03-05T18:25:30.774Z,82.03
2023-03-05T18:28:12.396Z,82.09
2023-03-05T18:30:41.139Z,82.08
2023-03-05T18:33:13.632Z,82.67
2023-03-05T18:35:41.024Z,82.12
2023-03-05T18:38:08.357Z,81.81
2023-03-05T18:40:37.545Z,81.84
2023-03-05T18:43:04.600Z,81.82
2023-03-05T18:45:32.372Z,81.67
2023-03-05T18:47:59.154Z,81.69
2023-03-05T18:50:28.399Z,80.89
2023-03-05T18:52:56.098Z,81.52
2023-03-05T18:55:26.234Z,81.55
2023-03-05T18:57:54.024Z,81.15
2023-03-05T19:00:23.765Z,81.31
2023-03-05T19:02:52.136Z,81.08
2023-03-05T19:05:20.159Z,81.47
2023-03-05T19:07:48.524Z,81.66
2023-03-05T19:10:17.749Z,81.82
2023-03-05T19:12:57.844Z,81.70
2023-03-05T19:15:25.120Z,82.18
2023-03-05T19:17:52.371Z,82.22
2023-03-05T19:20:19.454Z,81.65
2023-03-05T19:22:46.539Z,82.57
2023-03-05T19:25:14.008Z,82.89
2023-03-05T19:27:41.303Z,82.85
2023-03-05T19:30:10.141Z,82.87
2023-03-05T19:32:37.887Z,83.44
2023-03-05T19:35:06.855Z,83.73
2023-03-05T19:37:33.947Z,84.14
2023-03-05T19:40:02.818Z,84.33
2023-03-05T19:42:30.200Z,84.76
2023-03-05T19:44:59.020Z,85.03
2023-03-05T19:47:27.210Z,85.03
2023-03-05T19:49:54.296Z,85.31
2023-03-05T19:52:21.673Z,85.15
2023-03-05T19:54:48.752Z,84.84
2023-03-05T19:57:15.955Z,85.11
2023-03-05T19:59:44.067Z,85.45
2023-03-05T20:02:12.649Z,85.68
2023-03-05T20:04:39.997Z,85.73
2023-03-05T20:07:07.213Z,86.16
2023-03-05T20:09:34.318Z,86.29
2023-03-05T20:12:04.949Z,85.96
2023-03-05T20:14:31.780Z,86.79
2023-03-05T20:16:59.365Z,86.19
2023-03-05T20:19:26.504Z,86.83
2023-03-05T20:21:53.297Z,86.98
2023-03-05T20:24:22.347Z,87.29
2023-03-05T20:26:49.572Z,87.38
2023-03-05T20:29:18.091Z,87.56
2023-03-05T20:31:46.664Z,87.97
2023-03-05T20:34:18.973Z,88.20
2023-03-05T20:36:46.592Z,88.36
2023-03-05T20:39:13.831Z,88.24
2023-03-05T20:41:41.839Z,89.15
2023-03-05T20:44:11.377Z,89.14
2023-03-05T20:46:49.451Z,90.00
2023-03-05T20:49:16.336Z,89.96
2023-03-05T20:51:43.693Z,90.47
2023-03-05T20:54:13.222Z,90.73
2023-03-05T20:56:40.577Z,90.92
2023-03-05T20:59:09.554Z,90.79
2023-03-05T21:01:38.940Z,91.00
2023-03-05T21:04:06.890Z,91.61
2023-03-05T21:06:34.531Z,91.42
2023-03-05T21:09:01.482Z,92.35
2023-03-05T21:11:28.608Z,92.48
2023-03-05T21:13:55.500Z,92.63
2023-03-05T21:16:25.447Z,92.68
2023-03-05T21:18:55.905Z,92.49
2023-03-05T21:21:24.175Z,92.04
2023-03-05T21:23:52.026Z,92.53
2023-03-05T21:26:19.524Z,92.60
2023-03-05T21:28:46.227Z,92.66
2023-03-05T21:31:21.425Z,92.56
2023-03-05T21:33:49.383Z,92.06
2023-03-05T21:36:18.809Z,92.27
2023-03-05T21:38:47.387Z,92.68
2023-03-05T21:41:15.594Z,92.73
2023-03-05T21:43:42.736Z,93.03
2023-03-05T21:46:12.227Z,93.21
2023-03-05T21:48:40.819Z,93.11
2023-03-05T21:51:12.583Z,93.75
2023-03-05T21:53:40.814Z,93.53
2023-03-05T21:56:17.500Z,93.76
2023-03-05T21:58:44.707Z,93.55
2023-03-05T22:01:12.571Z,93.68
2023-03-05T22:03:40.467Z,93.74
2023-03-05T22:06:12.354Z,93.75
2023-03-05T22:08:40.770Z,94.22
2023-03-05T22:11:12.382Z,94.25
2023-03-05T22:13:39.862Z,94.97
2023-03-05T22:16:09.163Z,95.18
2023-03-05T22:18:37.117Z,95.63
2023-03-05T22:21:05.151Z,95.68
2023-03-05T22:23:34.578Z,96.23
2023-03-05T22:26:06.816Z,96.87
2023-03-05T22:28:35.058Z,97.67
2023-03-05T22:31:03.718Z,98.20
2023-03-05T22:33:32.077Z,98.48
2023-03-05T22:35:59.473Z,98.69
2023-03-05T22:38:26.485Z,99.09
2023-03-05T22:40:54.357Z,99.38
2023-03-05T22:43:21.309Z,99.21
2023-03-05T22:45:49.297Z,98.80
2023-03-05T22:48:16.199Z,99.18
2023-03-05T22:50:46.331Z,98.66
2023-03-05T22:53:13.893Z,98.04
2023-03-05T22:55:42.348Z,98.57
2023-03-05T22:58:09.803Z,98.28
2023-03-05T23:00:37.175Z,98.02
2023-03-05T23:03:05.148Z,98.69
2023-03-05T23:05:34.360Z,98.69
2023-03-05T23:08:01.457Z,98.93
2023-03-05T23:10:29.676Z,99.03
2023-03-05T23:12:59.360Z,99.19
2023-03-05T23:15:32.619Z,98.98
2023-03-05T23:18:01.972Z,99.52
2023-03-05T23:20:32.394Z,99.06
2023-03-05T23:23:01.094Z,99.63
2023-03-05T23:25:31.735Z,99.70
2023-03-05T23:27:59.347Z,99.27
2023-03-05T23:30:34.663Z,99.59
2023-03-05T23:33:07.402Z,99.19
2023-03-05T23:35:37.793Z,99.15
2023-03-05T23:38:07.855Z,99.74
2023-03-05T23:40:37.978Z,99.99
2023-03-05T23:43:05.233Z,100.00
2023-03-05T23:45:33.182Z,100.00
2023-03-05T23:48:00.407Z,100.00
2023-03-05T23:50:30.970Z,100.00
2023-03-05T23:53:00.017Z,100.00
2023-03-05T23:55:48.431Z,100.00
2023-03-05T23:58:16.212Z,100.00
